Time;durP1;ratioP1;P1;durP2;ratioP2;P2;SDS_P1;SDS_P2;PMS_P1;PMS_P2;Temp;Humidity;BMP_temperature;BMP_pressure;BME280_temperature;BME280_humidity;BME280_pressure;Samples;Min_cycle;Max_cycle;Signal;HPM_P1;HPM_P2
2023/06/15 00:01:31;;;;;;;14.53;13.43;;;;;;;17.41;100.00;92746.00;5010185;28;20190;-82
2023/06/15 00:03:57;;;;;;;15.23;13.83;;;;;;;17.34;100.00;92727.22;5001889;28;20207;-82
2023/06/15 00:06:22;;;;;;;27.00;19.57;;;;;;;17.55;100.00;92744.75;5024909;28;20228;-82
2023/06/15 00:08:47;;;;;;;25.07;20.70;;;;;;;17.47;100.00;92742.91;5011013;28;20259;-81
2023/06/15 00:11:13;;;;;;;23.40;20.73;;;;;;;17.29;100.00;92733.47;5011260;28;20231;-82
2023/06/15 00:13:38;;;;;;;23.37;20.60;;;;;;;17.21;100.00;92702.59;5011981;28;20218;-79
2023/06/15 00:16:04;;;;;;;21.37;18.97;;;;;;;17.42;100.00;92727.22;5010209;28;20226;-79
2023/06/15 00:18:32;;;;;;;18.73;17.03;;;;;;;17.52;100.00;92740.09;5007053;28;20223;-80
2023/06/15 00:20:57;;;;;;;17.10;15.63;;;;;;;17.38;100.00;92709.69;5022028;28;20283;-80
2023/06/15 00:23:26;;;;;;;19.13;17.43;;;;;;;17.45;100.00;92712.63;5020485;28;20197;-80
2023/06/15 00:25:53;;;;;;;18.10;16.60;;;;;;;17.43;100.00;92712.91;4985624;28;20225;-81
2023/06/15 00:28:18;;;;;;;15.67;14.30;;;;;;;17.31;100.00;92694.34;5011114;28;20202;-80
2023/06/15 00:30:44;;;;;;;16.20;14.87;;;;;;;17.53;100.00;92723.16;5010660;28;20246;-81
2023/06/15 00:33:09;;;;;;;14.93;13.73;;;;;;;17.58;100.00;92730.91;5011345;28;20231;-80
2023/06/15 00:35:35;;;;;;;15.80;14.40;;;;;;;17.49;100.00;92703.00;4998527;28;20231;-80
2023/06/15 00:38:00;;;;;;;15.43;14.17;;;;;;;17.46;100.00;92709.66;5011349;28;20191;-82
2023/06/15 00:40:25;;;;;;;15.73;14.37;;;;;;;17.47;100.00;92705.16;5017493;28;20355;-83
2023/06/15 00:42:51;;;;;;;16.43;15.03;;;;;;;17.33;100.00;92725.69;5009766;28;20254;-81
2023/06/15 00:45:16;;;;;;;15.87;13.67;;;;;;;17.38;100.00;92723.66;4997905;28;20227;-83
2023/06/15 00:47:43;;;;;;;16.13;14.73;;;;;;;17.36;100.00;92707.38;5014468;28;20187;-81
2023/06/15 00:50:10;;;;;;;15.63;14.30;;;;;;;17.36;100.00;92696.03;5013242;28;20219;-82
2023/06/15 00:52:37;;;;;;;15.87;14.57;;;;;;;17.49;100.00;92727.50;5011460;28;20183;-83
2023/06/15 00:55:03;;;;;;;15.77;14.47;;;;;;;17.52;100.00;92711.06;5007005;28;20231;-83
2023/06/15 00:57:30;;;;;;;15.47;14.17;;;;;;;17.45;100.00;92713.41;5007733;28;20192;-81
2023/06/15 00:59:56;;;;;;;16.43;14.83;;;;;;;17.47;100.00;92711.22;5010273;28;20231;-82
2023/06/15 01:02:24;;;;;;;15.70;14.43;;;;;;;17.50;100.00;92704.53;5010309;28;20175;-82
2023/06/15 01:04:50;;;;;;;16.27;14.87;;;;;;;17.44;100.00;92711.88;4988742;28;20234;-81
2023/06/15 01:07:20;;;;;;;15.00;13.80;;;;;;;17.34;100.00;92722.72;5005676;28;20183;-81
2023/06/15 01:09:47;;;;;;;17.37;15.73;;;;;;;17.46;100.00;92709.66;5006713;28;20223;-82
2023/06/15 01:12:14;;;;;;;15.97;14.63;;;;;;;17.17;100.00;92711.47;5014637;28;20219;-82
2023/06/15 01:14:40;;;;;;;15.13;13.73;;;;;;;17.04;100.00;92712.44;5010847;28;20236;-82
2023/06/15 01:17:13;;;;;;;15.63;14.30;;;;;;;17.25;100.00;92714.09;5011875;28;20185;-82
2023/06/15 01:19:53;;;;;;;16.63;15.23;;;;;;;17.34;100.00;92706.91;5010495;28;20294;-82
2023/06/15 01:22:41;;;;;;;15.73;14.33;;;;;;;17.32;100.00;92709.06;5010115;28;20192;-82
2023/06/15 01:25:33;;;;;;;15.33;13.83;;;;;;;17.20;100.00;92692.34;4981754;28;20242;-81
2023/06/15 01:28:04;;;;;;;15.20;13.83;;;;;;;17.16;100.00;92683.53;5004147;28;20194;-82
2023/06/15 01:30:33;;;;;;;14.73;13.40;;;;;;;17.20;100.00;92693.13;5007092;28;20233;-82
2023/06/15 01:32:59;;;;;;;15.77;14.37;;;;;;;17.26;100.00;92699.78;5007589;28;20187;-82
2023/06/15 01:35:25;;;;;;;14.43;13.23;;;;;;;17.26;100.00;92694.50;5006923;28;20239;-82
2023/06/15 01:37:50;;;;;;;14.47;13.33;;;;;;;17.30;100.00;92699.94;5006057;28;20238;-84
2023/06/15 01:40:17;;;;;;;15.67;14.23;;;;;;;17.21;100.00;92686.00;5010316;28;20265;-82
2023/06/15 01:42:44;;;;;;;14.20;13.10;;;;;;;17.30;100.00;92697.28;5010459;28;20214;-82
2023/06/15 01:45:12;;;;;;;14.37;13.23;;;;;;;17.21;100.00;92701.84;5009228;28;20219;-82
2023/06/15 01:47:39;;;;;;;15.23;14.03;;;;;;;17.18;100.00;92692.69;5010754;28;20195;-83
2023/06/15 01:50:07;;;;;;;13.17;12.13;;;;;;;17.11;100.00;92687.13;5001295;28;20230;-82
2023/06/15 01:52:32;;;;;;;14.80;13.47;;;;;;;17.09;100.00;92704.38;5009160;28;20189;-82
2023/06/15 01:54:58;;;;;;;15.00;13.60;;;;;;;16.94;100.00;92687.19;5011022;28;20230;-82
2023/06/15 01:57:23;;;;;;;14.47;13.43;;;;;;;16.97;100.00;92688.41;5016519;28;20186;-81
2023/06/15 01:59:49;;;;;;;14.80;13.33;;;;;;;16.74;100.00;92685.22;5014075;28;20231;-82
2023/06/15 02:02:14;;;;;;;14.90;13.80;;;;;;;16.78;100.00;92688.78;5002417;28;20191;-82
2023/06/15 02:04:40;;;;;;;14.93;13.73;;;;;;;16.66;100.00;92669.41;4991908;28;20227;-82
2023/06/15 02:07:05;;;;;;;14.10;13.00;;;;;;;16.75;100.00;92689.41;5012639;28;20218;-82
2023/06/15 02:09:31;;;;;;;15.03;13.83;;;;;;;16.68;100.00;92673.31;5012745;28;20313;-82
2023/06/15 02:11:59;;;;;;;15.47;14.17;;;;;;;16.71;100.00;92685.84;5013286;28;20245;-81
2023/06/15 02:14:24;;;;;;;18.83;14.97;;;;;;;16.51;100.00;92673.34;5013154;28;20235;-77
2023/06/15 02:16:50;;;;;;;14.73;13.53;;;;;;;16.61;100.00;92694.06;5014644;28;20179;-80
2023/06/15 02:19:21;;;;;;;15.43;14.27;;;;;;;16.52;100.00;92674.88;5013386;28;20616;-80
2023/06/15 02:21:48;;;;;;;15.17;13.97;;;;;;;16.59;100.00;92690.97;5013829;28;20238;-80
2023/06/15 02:24:13;;;;;;;16.27;14.70;;;;;;;16.50;100.00;92671.75;5013403;28;20216;-81
2023/06/15 02:26:40;;;;;;;15.23;14.13;;;;;;;16.42;100.00;92659.34;5014279;28;20281;-80
2023/06/15 02:29:05;;;;;;;14.97;13.57;;;;;;;16.44;100.00;92677.47;4994998;28;20187;-80
2023/06/15 02:31:31;;;;;;;15.03;13.93;;;;;;;16.38;100.00;92668.97;4997393;28;20183;-80
2023/06/15 02:33:56;;;;;;;15.70;14.20;;;;;;;16.52;100.00;92664.31;4996858;28;20191;-81
2023/06/15 02:36:22;;;;;;;15.10;13.80;;;;;;;16.40;100.00;92637.81;5019671;28;20231;-80
2023/06/15 02:38:49;;;;;;;14.40;13.30;;;;;;;16.66;100.00;92680.75;5014246;28;20183;-79
2023/06/15 02:41:15;;;;;;;14.50;13.30;;;;;;;16.77;100.00;92686.44;5016252;28;20227;-80
2023/06/15 02:43:40;;;;;;;13.97;12.90;;;;;;;16.60;100.00;92658.28;5012633;28;20198;-81
2023/06/15 02:46:06;;;;;;;14.70;13.30;;;;;;;16.65;100.00;92666.03;5016404;28;20283;-81
2023/06/15 02:48:32;;;;;;;14.20;12.90;;;;;;;16.73;100.00;92669.72;4996002;28;20267;-81
2023/06/15 02:50:58;;;;;;;14.83;13.53;;;;;;;16.88;100.00;92682.38;5011546;28;20270;-80
2023/06/15 02:53:23;;;;;;;15.67;14.23;;;;;;;16.77;100.00;92663.50;5002913;28;20182;-80
2023/06/15 02:55:51;;;;;;;14.83;13.70;;;;;;;16.88;100.00;92683.16;5010651;28;20250;-80
2023/06/15 02:58:19;;;;;;;15.20;13.80;;;;;;;16.90;100.00;92680.22;5014030;28;20184;-80
2023/06/15 03:00:48;;;;;;;14.53;13.33;;;;;;;16.66;100.00;92638.56;5012318;28;20223;-80
2023/06/15 03:03:14;;;;;;;14.93;13.30;;;;;;;16.88;100.00;92683.16;5012335;28;20186;-80
2023/06/15 03:05:40;;;;;;;15.10;13.90;;;;;;;17.07;100.00;92680.94;4993923;28;20294;-80
2023/06/15 03:08:06;;;;;;;15.00;13.90;;;;;;;17.01;100.00;92676.91;5012356;28;20211;-80
2023/06/15 03:10:31;;;;;;;15.30;14.10;;;;;;;17.06;100.00;92684.66;5012657;28;20239;-81
2023/06/15 03:12:57;;;;;;;14.20;13.00;;;;;;;17.16;100.00;92678.25;5011957;28;20227;-81
2023/06/15 03:15:23;;;;;;;14.47;13.27;;;;;;;17.15;100.00;92688.03;5015808;28;20233;-80
2023/06/15 03:17:49;;;;;;;14.47;13.33;;;;;;;17.02;100.00;92644.19;5004667;28;20169;-80
2023/06/15 03:20:14;;;;;;;15.57;14.03;;;;;;;17.21;100.00;92673.56;5011860;28;20224;-80
2023/06/15 03:22:39;;;;;;;16.17;14.80;;;;;;;17.30;100.00;92669.06;5011330;28;20741;-80
2023/06/15 03:25:05;;;;;;;15.13;13.90;;;;;;;17.37;100.00;92664.03;4993802;28;20873;-80
2023/06/15 03:27:32;;;;;;;13.47;12.43;;;;;;;17.34;100.00;92648.06;5012961;28;20192;-80
2023/06/15 03:30:01;;;;;;;16.10;14.87;;;;;;;17.66;100.00;92676.50;5014475;28;20237;-76
2023/06/15 03:32:27;;;;;;;15.43;13.63;;;;;;;17.58;100.00;92677.31;5012479;28;20175;-77
2023/06/15 03:34:53;;;;;;;16.47;14.93;;;;;;;17.47;100.00;92669.00;5011952;28;20215;-76
2023/06/15 03:37:18;;;;;;;15.23;13.93;;;;;;;17.53;100.00;92636.03;5011813;28;20219;-77
2023/06/15 03:39:44;;;;;;;15.37;14.10;;;;;;;17.34;100.00;92662.03;5010828;28;20231;-77
2023/06/15 03:42:10;;;;;;;14.40;13.30;;;;;;;17.60;100.00;92648.75;5004133;28;20186;-76
2023/06/15 03:44:35;;;;;;;14.27;13.27;;;;;;;17.76;100.00;92664.78;5007749;28;20231;-76
2023/06/15 03:47:01;;;;;;;15.07;13.87;;;;;;;17.94;100.00;92682.06;5008592;28;20230;-71
2023/06/15 03:49:27;;;;;;;13.03;11.80;;;;;;;18.11;100.00;92684.59;5009660;28;20236;-71
2023/06/15 03:51:52;;;;;;;13.90;12.90;;;;;;;18.09;100.00;92663.00;5009968;28;20193;-70
2023/06/15 03:54:17;;;;;;;14.30;12.97;;;;;;;18.36;100.00;92675.69;5009948;28;20245;-72
2023/06/15 03:56:44;;;;;;;13.83;12.73;;;;;;;18.48;100.00;92695.06;5009966;28;20192;-70
2023/06/15 03:59:09;;;;;;;14.30;13.20;;;;;;;18.51;100.00;92680.41;5009743;28;20193;-73
2023/06/15 04:01:34;;;;;;;13.47;12.53;;;;;;;18.84;100.00;92689.13;5008707;28;20216;-71
2023/06/15 04:04:00;;;;;;;15.60;14.17;;;;;;;19.17;100.00;92692.50;5009507;28;20198;-74
2023/06/15 04:06:26;;;;;;;15.03;13.83;;;;;;;19.59;100.00;92701.84;5009236;28;20227;-69
2023/06/15 04:08:51;;;;;;;14.80;13.53;;;;;;;19.93;100.00;92697.94;5015162;28;20250;-71
2023/06/15 04:11:17;;;;;;;14.37;13.23;;;;;;;19.07;100.00;92683.09;5012380;28;20235;-71
2023/06/15 04:13:44;;;;;;;14.93;13.83;;;;;;;19.49;100.00;92696.97;5013041;28;20327;-71
2023/06/15 04:16:10;;;;;;;14.80;13.70;;;;;;;19.50;100.00;92695.88;5009941;28;20227;-75
2023/06/15 04:18:36;;;;;;;15.20;13.90;;;;;;;19.64;99.70;92701.63;5020610;28;20188;-71
2023/06/15 04:21:03;;;;;;;15.70;14.33;;;;;;;20.02;100.00;92709.97;5008998;28;20253;-70
2023/06/15 04:23:29;;;;;;;13.87;12.67;;;;;;;20.46;98.26;92701.09;5009677;28;20248;-71
2023/06/15 04:25:58;;;;;;;14.00;12.73;;;;;;;20.67;96.15;92703.53;5005923;28;20227;-71
2023/06/15 04:28:24;;;;;;;14.80;13.60;;;;;;;20.50;95.82;92701.94;5009935;28;20213;-74
2023/06/15 04:31:05;;;;;;;15.10;13.67;;;;;;;20.39;97.12;92702.75;5008144;28;20294;-72
2023/06/15 04:33:32;;;;;;;14.13;13.10;;;;;;;20.30;96.92;92702.88;5006470;28;20196;-73
2023/06/15 04:35:57;;;;;;;15.53;14.33;;;;;;;20.43;95.84;92698.31;5008789;28;20232;-73
2023/06/15 04:38:22;;;;;;;14.63;13.50;;;;;;;20.32;96.55;92706.00;5008382;28;20191;-71
2023/06/15 04:40:48;;;;;;;14.10;13.00;;;;;;;20.05;98.33;92697.94;5008162;28;20234;-71
2023/06/15 04:43:13;;;;;;;14.77;13.47;;;;;;;20.06;97.26;92696.84;5008884;28;20198;-71
2023/06/15 04:45:38;;;;;;;15.07;13.57;;;;;;;20.01;98.52;92683.81;5008583;28;20230;-72
2023/06/15 04:48:05;;;;;;;14.23;13.07;;;;;;;20.10;99.16;92703.78;4991990;28;20221;-73
2023/06/15 04:50:31;;;;;;;14.50;13.30;;;;;;;20.03;100.00;92706.22;4999204;28;20261;-71
2023/06/15 04:52:57;;;;;;;14.70;13.60;;;;;;;19.97;99.45;92712.84;5002289;28;20201;-68
2023/06/15 04:55:22;;;;;;;14.83;13.63;;;;;;;19.79;99.92;92708.13;5006989;28;20221;-69
2023/06/15 04:57:48;;;;;;;16.20;14.57;;;;;;;19.42;100.00;92709.22;5007820;28;20190;-71
2023/06/15 05:00:15;;;;;;;14.97;13.77;;;;;;;19.24;100.00;92707.84;5010977;28;20213;-71
2023/06/15 05:02:40;;;;;;;16.97;15.30;;;;;;;19.22;100.00;92710.03;5012123;28;20209;-71
2023/06/15 05:05:06;;;;;;;16.37;14.80;;;;;;;19.01;100.00;92700.31;4990993;28;20229;-73
2023/06/15 05:07:31;;;;;;;16.83;15.33;;;;;;;19.01;100.00;92710.09;5011541;28;20198;-83
2023/06/15 05:09:57;;;;;;;17.07;15.47;;;;;;;18.93;100.00;92718.91;4987833;28;20219;-83
2023/06/15 05:12:22;;;;;;;17.00;15.57;;;;;;;18.93;100.00;92716.25;5006138;28;20232;-83
2023/06/15 05:14:48;;;;;;;16.50;14.90;;;;;;;18.96;100.00;92712.94;5007665;28;20235;-83
2023/06/15 05:17:13;;;;;;;17.20;15.53;;;;;;;19.03;100.00;92713.19;5005822;28;20189;-84
2023/06/15 05:19:39;;;;;;;16.90;15.23;;;;;;;18.90;100.00;92693.09;5008955;28;20240;-83
2023/06/15 05:22:05;;;;;;;18.50;16.70;;;;;;;19.01;100.00;92699.53;5005939;28;20194;-83
2023/06/15 05:24:31;;;;;;;18.00;16.40;;;;;;;19.17;100.00;92709.13;5008742;28;20237;-84
2023/06/15 05:26:57;;;;;;;19.13;17.13;;;;;;;19.16;100.00;92722.69;5005942;28;20312;-72
2023/06/15 05:29:23;;;;;;;18.53;16.80;;;;;;;19.07;100.00;92728.09;5008112;28;20240;-72
2023/06/15 05:31:48;;;;;;;18.33;16.53;;;;;;;19.00;100.00;92727.09;5008034;28;20203;-71
2023/06/15 05:34:14;;;;;;;19.00;17.30;;;;;;;18.95;100.00;92727.28;5007614;28;20994;-72
2023/06/15 05:36:39;;;;;;;18.73;16.40;;;;;;;18.96;100.00;92723.53;5008734;28;20201;-72
2023/06/15 05:39:06;;;;;;;20.47;18.37;;;;;;;18.81;100.00;92716.22;5008506;28;20193;-72
2023/06/15 05:41:32;;;;;;;19.67;17.77;;;;;;;19.03;100.00;92719.28;5010892;28;20222;-72
2023/06/15 05:44:01;;;;;;;20.80;18.33;;;;;;;19.06;100.00;92729.22;5012659;28;20184;-72
2023/06/15 05:46:26;;;;;;;20.00;17.23;;;;;;;19.00;100.00;92732.38;5011664;28;20247;-71
2023/06/15 05:48:52;;;;;;;20.60;18.50;;;;;;;18.93;100.00;92730.25;5011913;28;20201;-71
2023/06/15 05:51:17;;;;;;;20.57;18.47;;;;;;;18.98;100.00;92735.34;5011804;28;20249;-71
2023/06/15 05:53:43;;;;;;;19.93;17.80;;;;;;;18.90;100.00;92736.22;5012321;28;20208;-72
2023/06/15 05:56:08;;;;;;;20.43;17.87;;;;;;;18.98;100.00;92737.22;5011006;28;20230;-71
2023/06/15 05:58:33;;;;;;;23.40;19.47;;;;;;;19.01;100.00;92728.63;5011659;28;20201;-72
2023/06/15 06:00:59;;;;;;;20.07;17.87;;;;;;;19.05;100.00;92735.59;5010419;28;20244;-72
2023/06/15 06:03:24;;;;;;;20.97;18.83;;;;;;;19.07;100.00;92740.56;5004820;28;20197;-72
2023/06/15 06:05:50;;;;;;;20.77;18.77;;;;;;;19.18;100.00;92742.47;5011753;28;20243;-71
2023/06/15 06:08:17;;;;;;;24.30;18.67;;;;;;;19.19;100.00;92743.25;5012039;28;20186;-72
2023/06/15 06:10:42;;;;;;;21.00;18.80;;;;;;;18.71;100.00;92737.78;4994164;28;20255;-72
2023/06/15 06:13:07;;;;;;;21.60;19.40;;;;;;;19.09;100.00;92738.34;5012166;28;20221;-72
2023/06/15 06:15:33;;;;;;;21.00;18.90;;;;;;;19.22;100.00;92731.22;5009344;28;20233;-70
2023/06/15 06:17:58;;;;;;;28.93;20.97;;;;;;;19.14;100.00;92735.50;5010367;28;20201;-70
2023/06/15 06:20:24;;;;;;;24.93;21.10;;;;;;;19.32;100.00;92733.47;5011243;28;20232;-74
2023/06/15 06:22:50;;;;;;;23.97;21.37;;;;;;;19.33;100.00;92735.78;5005863;28;20189;-71
2023/06/15 06:25:16;;;;;;;23.27;20.90;;;;;;;19.58;100.00;92728.66;5009857;28;20233;-72
2023/06/15 06:27:41;;;;;;;24.27;20.30;;;;;;;19.78;100.00;92738.38;5011649;28;20185;-73
2023/06/15 06:30:07;;;;;;;22.87;20.53;;;;;;;19.66;100.00;92725.88;5013458;28;20229;-72
2023/06/15 06:32:32;;;;;;;26.27;20.63;;;;;;;19.93;100.00;92735.06;5010149;28;20193;-71
2023/06/15 06:34:57;;;;;;;24.27;20.53;;;;;;;19.05;100.00;92742.78;5011207;28;20260;-71
2023/06/15 06:37:24;;;;;;;26.90;21.73;;;;;;;19.16;100.00;92742.00;5011513;28;20202;-75
2023/06/15 06:39:50;;;;;;;22.93;20.47;;;;;;;19.37;100.00;92701.47;5006772;28;20233;-76
2023/06/15 06:42:16;;;;;;;29.43;21.33;;;;;;;19.72;100.00;92740.47;5011350;28;20191;-78
2023/06/15 06:44:41;;;;;;;22.17;19.53;;;;;;;19.63;100.00;92737.16;5010595;28;20230;-76
2023/06/15 06:47:06;;;;;;;27.10;21.03;;;;;;;19.72;100.00;92740.47;5004832;28;20281;-76
2023/06/15 06:49:32;;;;;;;26.13;19.83;;;;;;;19.79;100.00;92743.34;5008137;28;20231;-75
2023/06/15 06:51:57;;;;;;;24.67;21.13;;;;;;;19.06;100.00;92739.00;5011316;28;20198;-76
2023/06/15 06:54:23;;;;;;;25.90;20.17;;;;;;;19.05;100.00;92734.84;5011488;28;20225;-76
2023/06/15 06:56:48;;;;;;;25.67;20.57;;;;;;;19.81;100.00;92746.44;5011026;28;20206;-75
2023/06/15 06:59:13;;;;;;;23.07;20.70;;;;;;;19.97;100.00;92747.31;5010156;28;20260;-75
2023/06/15 07:01:39;;;;;;;22.13;19.77;;;;;;;20.18;100.00;92753.28;5011165;28;20195;-76
2023/06/15 07:04:05;;;;;;;23.37;20.83;;;;;;;20.26;100.00;92744.44;5009749;28;20195;-75
2023/06/15 07:06:30;;;;;;;22.30;19.93;;;;;;;20.40;100.00;92752.81;5011194;28;20214;-76
2023/06/15 07:08:55;;;;;;;23.53;20.20;;;;;;;20.56;100.00;92758.97;5010699;28;20237;-75
2023/06/15 07:11:21;;;;;;;24.20;20.63;;;;;;;20.52;100.00;92757.31;5009823;28;20237;-76
2023/06/15 07:13:46;;;;;;;25.67;22.87;;;;;;;20.38;100.00;92748.94;5010316;28;20200;-75
2023/06/15 07:16:12;;;;;;;21.17;18.97;;;;;;;20.23;100.00;92733.72;5007379;28;20260;-74
2023/06/15 07:18:37;;;;;;;22.50;19.93;;;;;;;20.39;100.00;92742.53;5008857;28;20191;-74
2023/06/15 07:21:02;;;;;;;20.57;18.33;;;;;;;20.35;100.00;92747.75;5010113;28;20226;-75
2023/06/15 07:23:28;;;;;;;20.93;18.77;;;;;;;20.33;100.00;92749.94;5020716;28;20196;-76
2023/06/15 07:25:54;;;;;;;21.00;18.80;;;;;;;20.27;100.00;92758.47;5008290;28;20242;-74
2023/06/15 07:28:20;;;;;;;22.53;20.13;;;;;;;20.30;100.00;92750.63;5011049;28;20224;-75
2023/06/15 07:30:49;;;;;;;22.27;20.17;;;;;;;20.19;100.00;92749.53;5012863;28;20246;-75
2023/06/15 07:33:15;;;;;;;24.17;19.50;;;;;;;20.26;100.00;92755.06;5009762;28;20240;-74
2023/06/15 07:35:41;;;;;;;25.30;20.80;;;;;;;20.07;100.00;92746.88;5010496;28;20221;-75
2023/06/15 07:38:06;;;;;;;24.20;21.30;;;;;;;20.10;100.00;92756.81;5010322;28;20213;-75
2023/06/15 07:40:31;;;;;;;24.10;20.13;;;;;;;19.98;100.00;92751.53;5009603;28;20234;-73
2023/06/15 07:42:57;;;;;;;23.13;20.73;;;;;;;20.03;100.00;92755.81;5010166;28;20190;-73
2023/06/15 07:45:22;;;;;;;25.40;20.40;;;;;;;20.06;100.00;92747.19;4995220;28;20236;-74
2023/06/15 07:47:48;;;;;;;25.97;20.07;;;;;;;19.96;100.00;92756.38;5010715;28;20191;-75
2023/06/15 07:50:13;;;;;;;25.57;21.40;;;;;;;19.99;100.00;92741.66;4992201;28;20222;-76
2023/06/15 07:52:38;;;;;;;29.57;20.93;;;;;;;20.10;100.00;92740.91;5010905;28;20206;-74
2023/06/15 07:55:05;;;;;;;23.40;20.80;;;;;;;20.11;100.00;92746.97;5006767;28;20231;-76
2023/06/15 07:57:30;;;;;;;24.90;21.23;;;;;;;20.34;100.00;92750.72;5010156;28;20199;-75
2023/06/15 08:00:00;;;;;;;26.07;20.67;;;;;;;20.40;100.00;92750.16;5009960;28;20233;-75
2023/06/15 08:02:25;;;;;;;27.98;21.30;;;;;;;20.50;100.00;92755.00;5009689;28;20194;-74
2023/06/15 08:04:51;;;;;;;23.33;20.83;;;;;;;20.30;100.00;92755.94;5005998;28;20233;-72
2023/06/15 08:07:16;;;;;;;24.73;20.43;;;;;;;20.57;100.00;92754.44;5009459;28;20203;-72
2023/06/15 08:09:42;;;;;;;23.30;20.17;;;;;;;20.60;100.00;92751.09;5013177;28;20228;-77
2023/06/15 08:12:09;;;;;;;22.67;20.43;;;;;;;20.73;100.00;92746.53;5009386;28;20221;-76
2023/06/15 08:14:35;;;;;;;23.07;20.60;;;;;;;20.76;100.00;92745.88;5008408;28;20242;-76
2023/06/15 08:17:01;;;;;;;24.63;19.80;;;;;;;21.03;100.00;92743.22;5009730;28;20217;-77
2023/06/15 08:19:27;;;;;;;23.03;20.17;;;;;;;21.30;98.79;92760.25;5009343;28;20227;-76
2023/06/15 08:21:52;;;;;;;22.27;19.87;;;;;;;21.24;96.34;92751.00;5009399;28;20193;-76
2023/06/15 08:24:18;;;;;;;21.27;19.07;;;;;;;21.31;96.86;92762.56;5009565;28;20246;-77
2023/06/15 08:26:44;;;;;;;22.20;19.80;;;;;;;21.07;96.15;92745.97;5002866;28;20226;-80
2023/06/15 08:29:10;;;;;;;23.87;21.17;;;;;;;21.21;97.00;92756.97;5009271;28;20509;-81
2023/06/15 08:31:36;;;;;;;21.23;18.37;;;;;;;21.22;95.60;92761.16;5009260;28;20209;-82
2023/06/15 08:34:01;;;;;;;23.20;20.53;;;;;;;21.43;97.70;92762.50;5007518;28;20254;-81
2023/06/15 08:36:28;;;;;;;22.25;19.02;;;;;;;21.34;97.86;92755.81;4999812;28;20214;-82
2023/06/15 08:38:54;;;;;;;20.85;18.75;;;;;;;21.50;94.67;92738.00;5011735;28;20222;-82
2023/06/15 08:41:21;;;;;;;20.08;18.00;;;;;;;21.53;93.35;92763.88;5003416;28;20217;-82
2023/06/15 08:43:48;;;;;;;21.25;18.88;;;;;;;21.52;95.36;92754.38;5009819;28;20209;-83
2023/06/15 08:46:14;;;;;;;20.52;18.52;;;;;;;21.18;94.51;92717.81;5008608;28;20228;-82
2023/06/15 08:48:39;;;;;;;22.67;20.52;;;;;;;21.39;93.34;92774.13;5014389;28;20201;-82
2023/06/15 08:51:08;;;;;;;20.10;18.13;;;;;;;21.32;92.66;92771.31;5012920;28;20318;-82
2023/06/15 08:53:37;;;;;;;20.33;18.23;;;;;;;21.05;94.32;92753.50;5001409;28;20199;-81
2023/06/15 08:56:06;;;;;;;19.85;17.90;;;;;;;21.02;95.49;92764.81;5004663;28;20227;-81
2023/06/15 08:58:31;;;;;;;20.77;18.58;;;;;;;20.97;97.92;92773.00;5009736;28;20196;-80
2023/06/15 09:01:00;;;;;;;22.55;20.27;;;;;;;20.83;96.14;92776.03;5007788;28;20226;-80
2023/06/15 09:03:25;;;;;;;20.20;18.27;;;;;;;20.75;96.24;92778.81;4998762;28;20199;-82
2023/06/15 09:05:51;;;;;;;20.52;18.33;;;;;;;20.41;95.69;92756.22;5007036;28;20265;-82
2023/06/15 09:08:16;;;;;;;21.20;19.10;;;;;;;20.33;100.00;92776.47;5009172;28;20221;-77
2023/06/15 09:10:42;;;;;;;19.00;17.10;;;;;;;20.42;96.75;92777.13;5006640;28;20226;-75
2023/06/15 09:13:15;;;;;;;19.47;17.63;;;;;;;20.29;99.20;92783.56;5006076;28;20216;-76
2023/06/15 09:15:43;;;;;;;21.47;19.43;;;;;;;19.87;100.00;92779.56;5007879;28;20268;-73
2023/06/15 09:18:10;;;;;;;22.33;20.03;;;;;;;19.45;100.00;92777.41;5012160;28;20294;-74
2023/06/15 09:20:39;;;;;;;25.23;21.00;;;;;;;19.57;100.00;92775.56;5012361;28;20222;-75
2023/06/15 09:23:10;;;;;;;22.80;20.37;;;;;;;19.92;100.00;92778.56;5009594;28;20262;-75
2023/06/15 09:25:36;;;;;;;25.03;20.80;;;;;;;19.70;100.00;92777.13;5012466;28;20241;-75
2023/06/15 09:28:06;;;;;;;24.37;21.77;;;;;;;19.46;100.00;92785.03;5013195;28;20187;-75
2023/06/15 09:30:36;;;;;;;23.87;20.00;;;;;;;19.48;100.00;92777.53;5015590;28;20221;-74
2023/06/15 09:33:12;;;;;;;24.80;21.97;;;;;;;19.34;100.00;92777.06;5008413;28;20245;-74
2023/06/15 09:35:54;;;;;;;27.77;22.27;;;;;;;18.82;100.00;92786.53;5012421;28;20233;-72
2023/06/15 09:38:19;;;;;;;25.67;21.97;;;;;;;18.92;100.00;92771.06;5012809;28;20211;-73
2023/06/15 09:40:45;;;;;;;26.00;21.60;;;;;;;19.27;100.00;92779.41;5012432;28;20222;-72
2023/06/15 09:43:12;;;;;;;27.50;21.23;;;;;;;19.52;100.00;92773.13;5012410;28;20248;-71
2023/06/15 09:45:48;;;;;;;25.23;21.47;;;;;;;19.43;100.00;92779.59;5012297;28;20293;-74
2023/06/15 09:48:14;;;;;;;26.70;20.83;;;;;;;19.18;100.00;92779.53;5008795;28;20280;-74
2023/06/15 09:50:39;;;;;;;22.17;19.67;;;;;;;18.93;100.00;92767.31;5012046;28;20221;-73
2023/06/15 09:53:05;;;;;;;27.83;20.70;;;;;;;18.69;100.00;92780.41;5012341;28;20192;-73
2023/06/15 09:55:31;;;;;;;28.47;20.57;;;;;;;18.83;100.00;92777.53;5012181;28;20217;-72
2023/06/15 09:57:56;;;;;;;25.80;21.37;;;;;;;19.12;100.00;92764.94;5012137;28;20218;-73
2023/06/15 10:00:22;;;;;;;23.60;21.07;;;;;;;18.66;100.00;92764.44;5009118;28;20240;-78
2023/06/15 10:02:52;;;;;;;27.03;22.00;;;;;;;19.40;100.00;92778.41;5012219;28;20189;-74
2023/06/15 10:05:27;;;;;;;29.57;21.67;;;;;;;19.43;100.00;92748.59;5012062;28;20236;-74
2023/06/15 10:07:53;;;;;;;25.27;21.57;;;;;;;19.11;100.00;92781.91;5011855;28;20189;-76
2023/06/15 10:10:20;;;;;;;23.30;20.80;;;;;;;18.99;100.00;92783.75;5011744;28;20252;-74
2023/06/15 10:12:49;;;;;;;26.93;21.53;;;;;;;18.51;100.00;92780.88;5011619;28;20228;-78
2023/06/15 10:15:18;;;;;;;26.77;21.10;;;;;;;18.69;100.00;92793.63;5010797;28;20232;-76
2023/06/15 10:17:48;;;;;;;26.50;22.13;;;;;;;19.07;100.00;92780.25;5009950;28;20255;-76
2023/06/15 10:20:19;;;;;;;23.90;21.40;;;;;;;19.34;100.00;92785.00;5011457;28;20255;-76
2023/06/15 10:22:50;;;;;;;26.83;21.53;;;;;;;19.20;100.00;92792.44;5012013;28;20185;-74
2023/06/15 10:25:16;;;;;;;26.53;21.17;;;;;;;19.30;100.00;92786.75;5011318;28;20334;-78
2023/06/15 10:27:43;;;;;;;31.90;22.20;;;;;;;19.46;100.00;92779.72;5009981;28;20190;-72
2023/06/15 10:30:20;;;;;;;27.40;21.00;;;;;;;19.47;100.00;92781.25;5010182;28;20227;-73
2023/06/15 10:32:59;;;;;;;25.83;21.97;;;;;;;19.37;100.00;92787.00;5011211;28;20192;-73
2023/06/15 10:35:33;;;;;;;23.43;20.40;;;;;;;19.43;100.00;92790.97;5010863;28;21045;-76
2023/06/15 10:38:13;;;;;;;24.53;21.57;;;;;;;19.12;100.00;92785.34;5022463;28;20196;-76
2023/06/15 10:40:58;;;;;;;24.23;21.30;;;;;;;19.38;100.00;92774.53;5006894;28;20230;-76
2023/06/15 10:43:29;;;;;;;24.47;20.30;;;;;;;19.28;100.00;92786.31;4999790;28;20194;-77
2023/06/15 10:45:55;;;;;;;25.07;20.97;;;;;;;19.27;100.00;92771.47;5004053;28;20240;-75
2023/06/15 10:48:21;;;;;;;24.13;21.63;;;;;;;19.35;100.00;92783.91;5010371;28;20206;-74
2023/06/15 10:50:51;;;;;;;22.93;20.43;;;;;;;19.54;100.00;92773.56;5012374;28;20237;-76
2023/06/15 10:53:35;;;;;;;23.40;20.90;;;;;;;20.06;100.00;92768.41;5012720;28;20187;-71
2023/06/15 10:56:27;;;;;;;24.27;21.53;;;;;;;20.10;100.00;92771.94;5010855;28;20229;-78
2023/06/15 10:59:01;;;;;;;23.07;20.60;;;;;;;20.21;100.00;92779.16;5004685;28;20214;-75
2023/06/15 11:01:29;;;;;;;23.40;21.00;;;;;;;19.98;100.00;92772.72;5006065;28;20212;-75
2023/06/15 11:03:55;;;;;;;22.43;20.13;;;;;;;20.55;100.00;92776.00;5010701;28;20213;-78
2023/06/15 11:06:30;;;;;;;23.00;20.50;;;;;;;20.46;100.00;92775.34;5009974;28;20226;-75
2023/06/15 11:09:06;;;;;;;23.10;18.67;;;;;;;20.35;100.00;92770.84;5010765;28;20224;-75